Estación de Iglesia Colorada – Quebrada seca

Ultimos registro cada 15 minutos 29
Estación Fecha / Hora Temperatura Humedad Lluvia Velocidad Dirección Radiación Presion
29 Iglesia Colorada – Quebrada seca 10-05-2026 07:00 18,3 9,7 0 3,5 88 0,6 850
28 Iglesia Colorada – Quebrada seca 10-05-2026 06:45 18,2 10,7 0 4 83 0,6 849,9
27 Iglesia Colorada – Quebrada seca 10-05-2026 06:30 18,3 10,5 0 3 87 0,6 849,8
26 Iglesia Colorada – Quebrada seca 10-05-2026 06:15 18,3 10,9 0 3,5 91 0,6 849,7
25 Iglesia Colorada – Quebrada seca 10-05-2026 06:00 17,8 11,4 0 3 91 0,6 849,6
24 Iglesia Colorada – Quebrada seca 10-05-2026 05:45 18,1 11,1 0 4 83 0,6 849,8
23 Iglesia Colorada – Quebrada seca 10-05-2026 05:30 18 11,7 0 3,5 86 0,6 849,7
22 Iglesia Colorada – Quebrada seca 10-05-2026 05:15 18,3 10,9 0 4 81 0,6 849,7
21 Iglesia Colorada – Quebrada seca 10-05-2026 05:00 18,2 11,6 0 4,5 98 0,6 849,9
20 Iglesia Colorada – Quebrada seca 10-05-2026 04:45 18 11,9 0 4 100 0,6 849,8
19 Iglesia Colorada – Quebrada seca 10-05-2026 04:30 18 12,4 0 3,5 104 0,6 849,9
18 Iglesia Colorada – Quebrada seca 10-05-2026 04:15 17,7 12,5 0 3,5 98 0,6 849,8
17 Iglesia Colorada – Quebrada seca 10-05-2026 04:00 17,8 12,8 0 4 91 0,6 849,8
16 Iglesia Colorada – Quebrada seca 10-05-2026 03:45 18 12,4 0 4 93 0,6 849,7
15 Iglesia Colorada – Quebrada seca 10-05-2026 03:30 18,4 12,4 0 4,5 90 0,6 849,8
14 Iglesia Colorada – Quebrada seca 10-05-2026 03:15 18,6 12,7 0 4,5 90 0,6 849,8
13 Iglesia Colorada – Quebrada seca 10-05-2026 03:00 18,3 12,9 0 4,5 90 0,6 849,5
12 Iglesia Colorada – Quebrada seca 10-05-2026 02:45 18,2 13,2 0 3,5 88 0,6 849,9
11 Iglesia Colorada – Quebrada seca 10-05-2026 02:30 18,3 13,4 0 4 81 0,6 849,8
10 Iglesia Colorada – Quebrada seca 10-05-2026 02:15 18,6 13,1 0 4 80 0,6 849,9
9 Iglesia Colorada – Quebrada seca 10-05-2026 02:00 18,3 13,6 0 4 81 0,6 850
8 Iglesia Colorada – Quebrada seca 10-05-2026 01:45 18,4 13,6 0 3,5 84 0,6 850
7 Iglesia Colorada – Quebrada seca 10-05-2026 01:30 18,5 13,7 0 3,5 80 0,6 850,1
6 Iglesia Colorada – Quebrada seca 10-05-2026 01:15 18,8 13,5 0 4,5 81 0,6 850
5 Iglesia Colorada – Quebrada seca 10-05-2026 01:00 18,5 13,8 0 3,5 100 0,6 850
4 Iglesia Colorada – Quebrada seca 10-05-2026 00:45 18,7 13,8 0 2,5 95 0,6 849,8
3 Iglesia Colorada – Quebrada seca 10-05-2026 00:30 19,2 13,5 0 4 91 0,6 849,8
2 Iglesia Colorada – Quebrada seca 10-05-2026 00:15 19 13,7 0 4 87 0,6 849,7
1 Iglesia Colorada – Quebrada seca 10-05-2026 00:00 19,5 13,5 0 4 90 0,6 849,8